チャーチル の空港の天気 - METARとTAF

チャーチル空港 ( CYYQ / YYQ ) - カナダ マニトバ州Churchill
飛行場実況気象(Metar)
観測時間07/28 20:00 CDT (07/29 01:00 UTC)
風向・風速北北西 2m/s
視程10km以上
天気現象
全天の8割程度の雲 雲底高度 1980m
気温14℃
湿度55%
気圧1017.3hPa
METARCYYQ 290100Z 33004KT 15SM BKN065 14/05 A3003 RMK SC6 SLP173
過去の天気等 Google飛行場航空写真 Wunderground天気予報

過去48時間のMETAR

飛行場予報(TAF)
発表時間: 7/28 18:48 CDT (7/28 23:48 UTC)
予報対象時間: 28日19時 CDT ~ 29日19時 CDT
風向・風速北 3m/s
視程10km以上
全天の8割程度の雲 雲底高度 1520m
29日1時 CDT から
風向・風速西北西 3m/s
視程10km以上
全天の4割程度の雲 雲底高度 1830m
29日6時 CDT から
風向・風速西 4m/s
視程10km以上
少しの雲 雲底高度 6100m
29日16時 CDT から
風向・風速西南西 5m/s
視程10km以上
全天の8割程度の雲 雲底高度 2130m
TAF CYYQ 282348Z 2900/2924 36005KT P6SM BKN050
FM290600 29006KT P6SM SCT060
FM291100 27007KT P6SM FEW200
FM292100 24010KT P6SM BKN070 RMK NXT FCST BY 290600Z